PWSweather.com
Personal Weather Stations
Station Observations
SELKIRK1
Ontario, Selkirk, ON N0A 1P0

OntarioSelkirk, ON N0A 1P0

Lat: 42.8083652, Lon: -79.94971040000001

Elevation: 583

Station Type: Acurite 5 in 1

http://gavinsurf.com

High Low Average
Temperature 82.5°F28.1°C 61.7°F16.5°C 70.8°F21.6°C
Dew Point 73.5°F23.1°C 61.4°F16.3°C 67.5°F19.7°C
Winds 5.8 mph 9.3 kmh Calm Calm 3.0 mph SE4.8 kmh SE
Wind Gusts 5.8 mph9.3 kmh -- 4.0 mph6.4 kmh
Humidity 99% 70% 90%
Pressure 31.77 in1075.9 mb 31.77 in1075.9 mb -
Precipitation 0.00 in0.0 mm - -
Hour Temp Dew Point Humidity Winds Wind Gusts Pressure Precip Precip Rate Daily Precip Total
12:00 AM 64.1°F17.8°C 63.8°F17.7°C 99% 3.5 mph N5.6 kmh N 3.5 mph5.6 kmh 31.77 in1075.9 mb - 0.00 in0.0 mm 0.00 in0.0 mm
12:10 AM 63.9°F17.7°C 63.6°F17.6°C 99% 3.5 mph N5.6 kmh N 3.5 mph5.6 kmh 31.77 in1075.9 mb - 0.00 in0.0 mm 0.00 in0.0 mm
12:15 AM 63.9°F17.7°C 63.6°F17.6°C 99% 4.6 mph N7.4 kmh N 4.6 mph7.4 kmh 31.77 in1075.9 mb - 0.00 in0.0 mm 0.00 in0.0 mm
12:20 AM 63.8°F17.7°C 63.5°F17.5°C 99% 4.6 mph N7.4 kmh N 4.6 mph7.4 kmh 31.77 in1075.9 mb - 0.00 in0.0 mm 0.00 in0.0 mm
12:25 AM 63.5°F17.5°C 63.2°F17.3°C 99% 4.6 mph N7.4 kmh N 4.6 mph7.4 kmh 31.77 in1075.9 mb - 0.00 in0.0 mm 0.00 in0.0 mm
12:30 AM 63.3°F17.4°C 63.0°F17.2°C 99% 4.6 mph N7.4 kmh N 4.6 mph7.4 kmh 31.77 in1075.9 mb - 0.00 in0.0 mm 0.00 in0.0 mm
12:35 AM 63.3°F17.4°C 63.0°F17.2°C 99% 4.6 mph NNE7.4 kmh NNE 4.6 mph7.4 kmh 31.77 in1075.9 mb - 0.00 in0.0 mm 0.00 in0.0 mm
12:40 AM 63.2°F17.3°C 62.9°F17.2°C 99% 4.6 mph N7.4 kmh N 4.6 mph7.4 kmh 31.77 in1075.9 mb - 0.00 in0.0 mm 0.00 in0.0 mm
12:45 AM 63.2°F17.3°C 62.9°F17.2°C 99% 3.5 mph N5.6 kmh N 3.5 mph5.6 kmh 31.77 in1075.9 mb - 0.00 in0.0 mm 0.00 in0.0 mm
12:50 AM 63.2°F17.3°C 62.9°F17.2°C 99% 3.5 mph N5.6 kmh N 4.6 mph7.4 kmh 31.77 in1075.9 mb - 0.00 in0.0 mm 0.00 in0.0 mm
12:55 AM 63.2°F17.3°C 62.9°F17.2°C 99% 3.5 mph N5.6 kmh N 4.6 mph7.4 kmh 31.77 in1075.9 mb - 0.00 in0.0 mm 0.00 in0.0 mm
01:00 AM 63.2°F17.3°C 62.9°F17.2°C 99% 3.5 mph N5.6 kmh N 3.5 mph5.6 kmh 31.77 in1075.9 mb - 0.00 in0.0 mm 0.00 in0.0 mm
01:10 AM 63.0°F17.2°C 62.7°F17.1°C 99% 3.5 mph N5.6 kmh N 3.5 mph5.6 kmh 31.77 in1075.9 mb - 0.00 in0.0 mm 0.00 in0.0 mm
01:15 AM 62.8°F17.1°C 62.5°F16.9°C 99% 3.5 mph NNE5.6 kmh NNE 3.5 mph5.6 kmh 31.77 in1075.9 mb - 0.00 in0.0 mm 0.00 in0.0 mm
01:20 AM 62.8°F17.1°C 62.5°F16.9°C 99% 3.5 mph NNE5.6 kmh NNE 3.5 mph5.6 kmh 31.77 in1075.9 mb - 0.00 in0.0 mm 0.00 in0.0 mm
01:25 AM 62.8°F17.1°C 62.5°F16.9°C 99% 4.6 mph N7.4 kmh N 4.6 mph7.4 kmh 31.77 in1075.9 mb - 0.00 in0.0 mm 0.00 in0.0 mm
01:30 AM 62.6°F17.0°C 62.3°F16.8°C 99% 4.6 mph N7.4 kmh N 4.6 mph7.4 kmh 31.77 in1075.9 mb - 0.00 in0.0 mm 0.00 in0.0 mm
01:35 AM 62.6°F17.0°C 62.3°F16.8°C 99% 4.6 mph N7.4 kmh N 4.6 mph7.4 kmh 31.77 in1075.9 mb - 0.00 in0.0 mm 0.00 in0.0 mm
01:40 AM 62.4°F16.9°C 62.1°F16.7°C 99% 4.6 mph N7.4 kmh N 4.6 mph7.4 kmh 31.77 in1075.9 mb - 0.00 in0.0 mm 0.00 in0.0 mm
01:45 AM 62.4°F16.9°C 62.1°F16.7°C 99% 4.6 mph N7.4 kmh N 5.8 mph9.3 kmh 31.77 in1075.9 mb - 0.00 in0.0 mm 0.00 in0.0 mm
01:50 AM 62.4°F16.9°C 62.1°F16.7°C 99% 4.6 mph N7.4 kmh N 5.8 mph9.3 kmh 31.77 in1075.9 mb - 0.00 in0.0 mm 0.00 in0.0 mm
01:55 AM 62.6°F17.0°C 62.3°F16.8°C 99% 5.8 mph N9.3 kmh N 5.8 mph9.3 kmh 31.77 in1075.9 mb - 0.00 in0.0 mm 0.00 in0.0 mm
02:00 AM 62.6°F17.0°C 62.3°F16.8°C 99% 4.6 mph N7.4 kmh N 5.8 mph9.3 kmh 31.77 in1075.9 mb - 0.00 in0.0 mm 0.00 in0.0 mm
02:10 AM 62.6°F17.0°C 62.3°F16.8°C 99% 5.8 mph NNW9.3 kmh NNW 5.8 mph9.3 kmh 31.77 in1075.9 mb - 0.00 in0.0 mm 0.00 in0.0 mm
02:15 AM 62.6°F17.0°C 62.3°F16.8°C 99% 4.6 mph N7.4 kmh N 5.8 mph9.3 kmh 31.77 in1075.9 mb - 0.00 in0.0 mm 0.00 in0.0 mm
02:20 AM 62.6°F17.0°C 62.3°F16.8°C 99% 5.8 mph N9.3 kmh N 5.8 mph9.3 kmh 31.77 in1075.9 mb - 0.00 in0.0 mm 0.00 in0.0 mm
02:25 AM 62.6°F17.0°C 62.3°F16.8°C 99% 4.6 mph NNW7.4 kmh NNW 4.6 mph7.4 kmh 31.77 in1075.9 mb - 0.00 in0.0 mm 0.00 in0.0 mm
02:30 AM 62.6°F17.0°C 62.3°F16.8°C 99% 4.6 mph N7.4 kmh N 4.6 mph7.4 kmh 31.77 in1075.9 mb - 0.00 in0.0 mm 0.00 in0.0 mm
02:35 AM 62.6°F17.0°C 62.3°F16.8°C 99% 4.6 mph N7.4 kmh N 4.6 mph7.4 kmh 31.77 in1075.9 mb - 0.00 in0.0 mm 0.00 in0.0 mm
02:40 AM 62.6°F17.0°C 62.3°F16.8°C 99% 4.6 mph N7.4 kmh N 5.8 mph9.3 kmh 31.77 in1075.9 mb - 0.00 in0.0 mm 0.00 in0.0 mm
02:45 AM 62.4°F16.9°C 62.1°F16.7°C 99% 4.6 mph NNW7.4 kmh NNW 4.6 mph7.4 kmh 31.77 in1075.9 mb - 0.00 in0.0 mm 0.00 in0.0 mm
02:50 AM 62.4°F16.9°C 62.1°F16.7°C 99% 3.5 mph N5.6 kmh N 3.5 mph5.6 kmh 31.77 in1075.9 mb - 0.00 in0.0 mm 0.00 in0.0 mm
02:55 AM 62.3°F16.8°C 62.0°F16.7°C 99% 3.5 mph N5.6 kmh N 3.5 mph5.6 kmh 31.77 in1075.9 mb - 0.00 in0.0 mm 0.00 in0.0 mm
03:00 AM 62.3°F16.8°C 62.0°F16.7°C 99% 3.5 mph N5.6 kmh N 4.6 mph7.4 kmh 31.77 in1075.9 mb - 0.00 in0.0 mm 0.00 in0.0 mm
03:10 AM 62.1°F16.7°C 61.8°F16.6°C 99% 4.6 mph N7.4 kmh N 5.8 mph9.3 kmh 31.77 in1075.9 mb - 0.00 in0.0 mm 0.00 in0.0 mm
03:15 AM 62.1°F16.7°C 61.8°F16.6°C 99% 5.8 mph N9.3 kmh N 5.8 mph9.3 kmh 31.77 in1075.9 mb - 0.00 in0.0 mm 0.00 in0.0 mm
03:20 AM 62.1°F16.7°C 61.8°F16.6°C 99% 5.8 mph NNE9.3 kmh NNE 5.8 mph9.3 kmh 31.77 in1075.9 mb - 0.00 in0.0 mm 0.00 in0.0 mm
03:25 AM 62.1°F16.7°C 61.8°F16.6°C 99% 4.6 mph N7.4 kmh N 5.8 mph9.3 kmh 31.77 in1075.9 mb - 0.00 in0.0 mm 0.00 in0.0 mm
03:30 AM 62.1°F16.7°C 61.8°F16.6°C 99% 4.6 mph NNE7.4 kmh NNE 4.6 mph7.4 kmh 31.77 in1075.9 mb - 0.00 in0.0 mm 0.00 in0.0 mm
03:35 AM 62.1°F16.7°C 61.8°F16.6°C 99% 4.6 mph N7.4 kmh N 5.8 mph9.3 kmh 31.77 in1075.9 mb - 0.00 in0.0 mm 0.00 in0.0 mm
03:40 AM 62.1°F16.7°C 61.8°F16.6°C 99% 5.8 mph N9.3 kmh N 5.8 mph9.3 kmh 31.77 in1075.9 mb - 0.00 in0.0 mm 0.00 in0.0 mm
03:45 AM 62.1°F16.7°C 61.8°F16.6°C 99% 4.6 mph N7.4 kmh N 5.8 mph9.3 kmh 31.77 in1075.9 mb - 0.00 in0.0 mm 0.00 in0.0 mm
03:50 AM 62.1°F16.7°C 61.8°F16.6°C 99% 4.6 mph N7.4 kmh N 5.8 mph9.3 kmh 31.77 in1075.9 mb - 0.00 in0.0 mm 0.00 in0.0 mm
03:55 AM 62.1°F16.7°C 61.8°F16.6°C 99% 4.6 mph N7.4 kmh N 5.8 mph9.3 kmh 31.77 in1075.9 mb - 0.00 in0.0 mm 0.00 in0.0 mm
04:00 AM 62.1°F16.7°C 61.8°F16.6°C 99% 4.6 mph N7.4 kmh N 4.6 mph7.4 kmh 31.77 in1075.9 mb - 0.00 in0.0 mm 0.00 in0.0 mm
04:10 AM 62.1°F16.7°C 61.8°F16.6°C 99% 5.8 mph NNE9.3 kmh NNE 5.8 mph9.3 kmh 31.77 in1075.9 mb - 0.00 in0.0 mm 0.00 in0.0 mm
04:15 AM 62.3°F16.8°C 62.0°F16.7°C 99% 5.8 mph N9.3 kmh N 5.8 mph9.3 kmh 31.77 in1075.9 mb - 0.00 in0.0 mm 0.00 in0.0 mm
04:20 AM 62.3°F16.8°C 62.0°F16.7°C 99% 4.6 mph N7.4 kmh N 5.8 mph9.3 kmh 31.77 in1075.9 mb - 0.00 in0.0 mm 0.00 in0.0 mm
04:25 AM 62.3°F16.8°C 62.0°F16.7°C 99% 4.6 mph N7.4 kmh N 4.6 mph7.4 kmh 31.77 in1075.9 mb - 0.00 in0.0 mm 0.00 in0.0 mm
04:30 AM 62.1°F16.7°C 61.8°F16.6°C 99% 4.6 mph N7.4 kmh N 5.8 mph9.3 kmh 31.77 in1075.9 mb - 0.00 in0.0 mm 0.00 in0.0 mm
04:35 AM 62.1°F16.7°C 61.8°F16.6°C 99% 4.6 mph N7.4 kmh N 5.8 mph9.3 kmh 31.77 in1075.9 mb - 0.00 in0.0 mm 0.00 in0.0 mm
04:40 AM 62.1°F16.7°C 61.8°F16.6°C 99% 5.8 mph N9.3 kmh N 5.8 mph9.3 kmh 31.77 in1075.9 mb - 0.00 in0.0 mm 0.00 in0.0 mm
04:45 AM 61.9°F16.6°C 61.6°F16.4°C 99% 4.6 mph N7.4 kmh N 5.8 mph9.3 kmh 31.77 in1075.9 mb - 0.00 in0.0 mm 0.00 in0.0 mm
04:50 AM 61.9°F16.6°C 61.6°F16.4°C 99% 5.8 mph NNE9.3 kmh NNE 5.8 mph9.3 kmh 31.77 in1075.9 mb - 0.00 in0.0 mm 0.00 in0.0 mm
04:55 AM 62.3°F16.8°C 62.0°F16.7°C 99% 4.6 mph N7.4 kmh N 5.8 mph9.3 kmh 31.77 in1075.9 mb - 0.00 in0.0 mm 0.00 in0.0 mm
05:00 AM 62.3°F16.8°C 62.0°F16.7°C 99% 4.6 mph NE7.4 kmh NE 4.6 mph7.4 kmh 31.77 in1075.9 mb - 0.00 in0.0 mm 0.00 in0.0 mm
05:10 AM 62.3°F16.8°C 62.0°F16.7°C 99% 4.6 mph NNE7.4 kmh NNE 4.6 mph7.4 kmh 31.77 in1075.9 mb - 0.00 in0.0 mm 0.00 in0.0 mm
05:15 AM 62.3°F16.8°C 62.0°F16.7°C 99% 4.6 mph NNE7.4 kmh NNE 5.8 mph9.3 kmh 31.77 in1075.9 mb - 0.00 in0.0 mm 0.00 in0.0 mm
05:20 AM 62.1°F16.7°C 61.8°F16.6°C 99% 4.6 mph N7.4 kmh N 5.8 mph9.3 kmh 31.77 in1075.9 mb - 0.00 in0.0 mm 0.00 in0.0 mm
05:25 AM 61.9°F16.6°C 61.6°F16.4°C 99% 4.6 mph N7.4 kmh N 4.6 mph7.4 kmh 31.77 in1075.9 mb - 0.00 in0.0 mm 0.00 in0.0 mm
05:30 AM 61.7°F16.5°C 61.4°F16.3°C 99% 4.6 mph NNE7.4 kmh NNE 5.8 mph9.3 kmh 31.77 in1075.9 mb - 0.00 in0.0 mm 0.00 in0.0 mm
05:35 AM 61.7°F16.5°C 61.4°F16.3°C 99% 4.6 mph N7.4 kmh N 5.8 mph9.3 kmh 31.77 in1075.9 mb - 0.00 in0.0 mm 0.00 in0.0 mm
05:40 AM 61.7°F16.5°C 61.4°F16.3°C 99% 4.6 mph N7.4 kmh N 5.8 mph9.3 kmh 31.77 in1075.9 mb - 0.00 in0.0 mm 0.00 in0.0 mm
05:45 AM 61.9°F16.6°C 61.6°F16.4°C 99% 4.6 mph N7.4 kmh N 5.8 mph9.3 kmh 31.77 in1075.9 mb - 0.00 in0.0 mm 0.00 in0.0 mm
05:50 AM 62.1°F16.7°C 61.8°F16.6°C 99% 4.6 mph N7.4 kmh N 5.8 mph9.3 kmh 31.77 in1075.9 mb - 0.00 in0.0 mm 0.00 in0.0 mm
05:55 AM 62.3°F16.8°C 62.0°F16.7°C 99% 4.6 mph N7.4 kmh N 5.8 mph9.3 kmh 31.77 in1075.9 mb - 0.00 in0.0 mm 0.00 in0.0 mm
06:00 AM 62.3°F16.8°C 62.0°F16.7°C 99% 4.6 mph NNE7.4 kmh NNE 4.6 mph7.4 kmh 31.77 in1075.9 mb - 0.00 in0.0 mm 0.00 in0.0 mm
06:10 AM 62.3°F16.8°C 62.0°F16.7°C 99% 3.5 mph N5.6 kmh N 3.5 mph5.6 kmh 31.77 in1075.9 mb - 0.00 in0.0 mm 0.00 in0.0 mm
06:15 AM 62.3°F16.8°C 62.0°F16.7°C 99% 3.5 mph N5.6 kmh N 3.5 mph5.6 kmh 31.77 in1075.9 mb - 0.00 in0.0 mm 0.00 in0.0 mm
06:20 AM 62.1°F16.7°C 61.8°F16.6°C 99% 3.5 mph NNE5.6 kmh NNE 4.6 mph7.4 kmh 31.77 in1075.9 mb - 0.00 in0.0 mm 0.00 in0.0 mm
06:25 AM 62.1°F16.7°C 61.8°F16.6°C 99% 3.5 mph NNE5.6 kmh NNE 3.5 mph5.6 kmh 31.77 in1075.9 mb - 0.00 in0.0 mm 0.00 in0.0 mm
06:30 AM 62.1°F16.7°C 61.8°F16.6°C 99% 3.5 mph NNE5.6 kmh NNE 3.5 mph5.6 kmh 31.77 in1075.9 mb - 0.00 in0.0 mm 0.00 in0.0 mm
06:35 AM 62.1°F16.7°C 61.8°F16.6°C 99% 2.3 mph N3.7 kmh N 2.3 mph3.7 kmh 31.77 in1075.9 mb - 0.00 in0.0 mm 0.00 in0.0 mm
06:40 AM 62.4°F16.9°C 62.1°F16.7°C 99% 3.5 mph N5.6 kmh N 3.5 mph5.6 kmh 31.77 in1075.9 mb - 0.00 in0.0 mm 0.00 in0.0 mm
06:45 AM 62.6°F17.0°C 62.3°F16.8°C 99% 2.3 mph NNE3.7 kmh NNE 2.3 mph3.7 kmh 31.77 in1075.9 mb - 0.00 in0.0 mm 0.00 in0.0 mm
06:50 AM 62.8°F17.1°C 62.5°F16.9°C 99% 3.5 mph N5.6 kmh N 3.5 mph5.6 kmh 31.77 in1075.9 mb - 0.00 in0.0 mm 0.00 in0.0 mm
06:55 AM 63.0°F17.2°C 62.7°F17.1°C 99% 3.5 mph NNE5.6 kmh NNE 2.3 mph3.7 kmh 31.77 in1075.9 mb - 0.00 in0.0 mm 0.00 in0.0 mm
07:00 AM 63.0°F17.2°C 62.7°F17.1°C 99% 2.3 mph N3.7 kmh N 2.3 mph3.7 kmh 31.77 in1075.9 mb - 0.00 in0.0 mm 0.00 in0.0 mm
07:10 AM 63.3°F17.4°C 63.0°F17.2°C 99% 3.5 mph NNE5.6 kmh NNE 4.6 mph7.4 kmh 31.77 in1075.9 mb - 0.00 in0.0 mm 0.00 in0.0 mm
07:15 AM 63.5°F17.5°C 63.2°F17.3°C 99% 4.6 mph N7.4 kmh N 4.6 mph7.4 kmh 31.77 in1075.9 mb - 0.00 in0.0 mm 0.00 in0.0 mm
07:20 AM 63.3°F17.4°C 63.0°F17.2°C 99% 4.6 mph N7.4 kmh N 5.8 mph9.3 kmh 31.77 in1075.9 mb - 0.00 in0.0 mm 0.00 in0.0 mm
07:25 AM 63.0°F17.2°C 62.7°F17.1°C 99% 5.8 mph N9.3 kmh N 5.8 mph9.3 kmh 31.77 in1075.9 mb - 0.00 in0.0 mm 0.00 in0.0 mm
07:30 AM 63.0°F17.2°C 62.7°F17.1°C 99% 4.6 mph N7.4 kmh N 5.8 mph9.3 kmh 31.77 in1075.9 mb - 0.00 in0.0 mm 0.00 in0.0 mm
07:35 AM 63.0°F17.2°C 62.7°F17.1°C 99% 5.8 mph N9.3 kmh N 5.8 mph9.3 kmh 31.77 in1075.9 mb - 0.00 in0.0 mm 0.00 in0.0 mm
07:40 AM 63.0°F17.2°C 62.7°F17.1°C 99% 5.8 mph N9.3 kmh N 5.8 mph9.3 kmh 31.77 in1075.9 mb - 0.00 in0.0 mm 0.00 in0.0 mm
07:45 AM 63.2°F17.3°C 62.9°F17.2°C 99% 5.8 mph N9.3 kmh N 5.8 mph9.3 kmh 31.77 in1075.9 mb - 0.00 in0.0 mm 0.00 in0.0 mm
07:50 AM 63.3°F17.4°C 63.0°F17.2°C 99% 4.6 mph N7.4 kmh N 5.8 mph9.3 kmh 31.77 in1075.9 mb - 0.00 in0.0 mm 0.00 in0.0 mm
07:55 AM 63.5°F17.5°C 63.2°F17.3°C 99% 4.6 mph N7.4 kmh N 5.8 mph9.3 kmh 31.77 in1075.9 mb - 0.00 in0.0 mm 0.00 in0.0 mm
08:00 AM 63.7°F17.6°C 63.4°F17.4°C 99% 4.6 mph N7.4 kmh N 5.8 mph9.3 kmh 31.77 in1075.9 mb - 0.00 in0.0 mm 0.00 in0.0 mm
08:10 AM 64.2°F17.9°C 63.9°F17.7°C 99% 4.6 mph NNE7.4 kmh NNE 5.8 mph9.3 kmh 31.77 in1075.9 mb - 0.00 in0.0 mm 0.00 in0.0 mm
08:15 AM 64.4°F18.0°C 64.1°F17.8°C 99% 5.8 mph N9.3 kmh N 5.8 mph9.3 kmh 31.77 in1075.9 mb - 0.00 in0.0 mm 0.00 in0.0 mm
08:20 AM 64.8°F18.2°C 64.5°F18.1°C 99% 4.6 mph NNE7.4 kmh NNE 4.6 mph7.4 kmh 31.77 in1075.9 mb - 0.00 in0.0 mm 0.00 in0.0 mm
08:25 AM 65.1°F18.4°C 64.8°F18.2°C 99% 4.6 mph N7.4 kmh N 4.6 mph7.4 kmh 31.77 in1075.9 mb - 0.00 in0.0 mm 0.00 in0.0 mm
08:30 AM 65.6°F18.7°C 65.3°F18.5°C 99% 4.6 mph N7.4 kmh N 4.6 mph7.4 kmh 31.77 in1075.9 mb - 0.00 in0.0 mm 0.00 in0.0 mm
08:35 AM 65.9°F18.8°C 65.6°F18.7°C 99% 4.6 mph NNE7.4 kmh NNE 5.8 mph9.3 kmh 31.77 in1075.9 mb - 0.00 in0.0 mm 0.00 in0.0 mm
08:40 AM 66.2°F19.0°C 65.9°F18.8°C 99% 4.6 mph N7.4 kmh N 5.8 mph9.3 kmh 31.77 in1075.9 mb - 0.00 in0.0 mm 0.00 in0.0 mm
08:45 AM 66.7°F19.3°C 66.4°F19.1°C 99% 5.8 mph N9.3 kmh N 5.8 mph9.3 kmh 31.77 in1075.9 mb - 0.00 in0.0 mm 0.00 in0.0 mm
08:50 AM 67.1°F19.5°C 66.8°F19.3°C 99% 4.6 mph N7.4 kmh N 5.8 mph9.3 kmh 31.77 in1075.9 mb - 0.00 in0.0 mm 0.00 in0.0 mm
08:55 AM 67.1°F19.5°C 66.8°F19.3°C 99% 5.8 mph N9.3 kmh N 5.8 mph9.3 kmh 31.77 in1075.9 mb - 0.00 in0.0 mm 0.00 in0.0 mm
09:00 AM 68.1°F20.1°C 67.8°F19.9°C 99% 5.8 mph N9.3 kmh N 5.8 mph9.3 kmh 31.77 in1075.9 mb - 0.00 in0.0 mm 0.00 in0.0 mm
09:10 AM 69.5°F20.8°C 69.2°F20.7°C 99% 3.5 mph NE5.6 kmh NE 3.5 mph5.6 kmh 31.77 in1075.9 mb - 0.00 in0.0 mm 0.00 in0.0 mm
09:15 AM 70.0°F21.1°C 69.4°F20.8°C 98% 3.5 mph NNE5.6 kmh NNE 4.6 mph7.4 kmh 31.77 in1075.9 mb - 0.00 in0.0 mm 0.00 in0.0 mm
09:20 AM 70.6°F21.4°C 69.7°F20.9°C 97% 4.6 mph NNE7.4 kmh NNE 4.6 mph7.4 kmh 31.77 in1075.9 mb - 0.00 in0.0 mm 0.00 in0.0 mm
09:25 AM 71.3°F21.8°C 70.5°F21.4°C 97% 2.3 mph NNE3.7 kmh NNE 3.5 mph5.6 kmh 31.77 in1075.9 mb - 0.00 in0.0 mm 0.00 in0.0 mm
09:30 AM 71.9°F22.2°C 70.7°F21.5°C 96% 3.5 mph N5.6 kmh N 4.6 mph7.4 kmh 31.77 in1075.9 mb - 0.00 in0.0 mm 0.00 in0.0 mm
09:35 AM 72.5°F22.5°C 71.0°F21.7°C 95% 3.5 mph N5.6 kmh N 4.6 mph7.4 kmh 31.77 in1075.9 mb - 0.00 in0.0 mm 0.00 in0.0 mm
09:40 AM 73.8°F23.2°C 71.6°F22.0°C 93% 2.3 mph ENE3.7 kmh ENE 2.3 mph3.7 kmh 31.77 in1075.9 mb - 0.00 in0.0 mm 0.00 in0.0 mm
09:45 AM 74.6°F23.7°C 71.8°F22.1°C 91% 2.3 mph NE3.7 kmh NE 3.5 mph5.6 kmh 31.77 in1075.9 mb - 0.00 in0.0 mm 0.00 in0.0 mm
09:50 AM 75.3°F24.1°C 72.2°F22.3°C 90% 2.3 mph NE3.7 kmh NE 2.3 mph3.7 kmh 31.77 in1075.9 mb - 0.00 in0.0 mm 0.00 in0.0 mm
09:55 AM 75.8°F24.3°C 72.6°F22.6°C 90% 1.2 mph ENE1.9 kmh ENE 2.3 mph3.7 kmh 31.77 in1075.9 mb - 0.00 in0.0 mm 0.00 in0.0 mm
10:00 AM 75.9°F24.4°C 72.1°F22.3°C 88% 2.3 mph ENE3.7 kmh ENE 1.2 mph1.9 kmh 31.77 in1075.9 mb - 0.00 in0.0 mm 0.00 in0.0 mm
10:10 AM 77.6°F25.3°C 73.0°F22.8°C 86% 2.3 mph NE3.7 kmh NE 1.2 mph1.9 kmh 31.77 in1075.9 mb - 0.00 in0.0 mm 0.00 in0.0 mm
10:15 AM 78.2°F25.7°C 72.6°F22.6°C 83% 2.3 mph E3.7 kmh E 1.2 mph1.9 kmh 31.77 in1075.9 mb - 0.00 in0.0 mm 0.00 in0.0 mm
10:20 AM 78.1°F25.6°C 72.6°F22.6°C 83% 2.3 mph E3.7 kmh E 2.3 mph3.7 kmh 31.77 in1075.9 mb - 0.00 in0.0 mm 0.00 in0.0 mm
10:25 AM 78.2°F25.7°C 73.3°F22.9°C 85% 2.3 mph ENE3.7 kmh ENE 3.5 mph5.6 kmh 31.77 in1075.9 mb - 0.00 in0.0 mm 0.00 in0.0 mm
10:30 AM 79.4°F26.3°C 73.4°F23.0°C 82% 2.3 mph E3.7 kmh E 2.3 mph3.7 kmh 31.77 in1075.9 mb - 0.00 in0.0 mm 0.00 in0.0 mm
10:35 AM 80.3°F26.8°C 73.5°F23.1°C 80% 2.3 mph E3.7 kmh E 2.3 mph3.7 kmh 31.77 in1075.9 mb - 0.00 in0.0 mm 0.00 in0.0 mm
10:40 AM 78.8°F26.0°C 72.5°F22.5°C 81% 2.3 mph ESE3.7 kmh ESE 3.5 mph5.6 kmh 31.77 in1075.9 mb - 0.00 in0.0 mm 0.00 in0.0 mm
10:45 AM 78.8°F26.0°C 72.5°F22.5°C 81% 2.3 mph E3.7 kmh E 2.3 mph3.7 kmh 31.77 in1075.9 mb - 0.00 in0.0 mm 0.00 in0.0 mm
10:50 AM 79.7°F26.5°C 72.2°F22.3°C 78% 2.3 mph E3.7 kmh E 2.3 mph3.7 kmh 31.77 in1075.9 mb - 0.00 in0.0 mm 0.00 in0.0 mm
10:55 AM 78.9°F26.1°C 71.5°F21.9°C 78% 2.3 mph E3.7 kmh E 1.2 mph1.9 kmh 31.77 in1075.9 mb - 0.00 in0.0 mm 0.00 in0.0 mm
11:00 AM 79.4°F26.3°C 72.7°F22.6°C 80% 1.2 mph E1.9 kmh E 2.3 mph3.7 kmh 31.77 in1075.9 mb - 0.00 in0.0 mm 0.00 in0.0 mm
11:10 AM 80.2°F26.8°C 72.7°F22.6°C 78% 2.3 mph E3.7 kmh E 1.2 mph1.9 kmh 31.77 in1075.9 mb - 0.00 in0.0 mm 0.00 in0.0 mm
11:15 AM 81.4°F27.4°C 72.4°F22.4°C 74% 1.2 mph SE1.9 kmh SE 2.3 mph3.7 kmh 31.77 in1075.9 mb - 0.00 in0.0 mm 0.00 in0.0 mm
11:20 AM 79.6°F26.4°C 71.4°F21.9°C 76% 1.2 mph ESE1.9 kmh ESE 2.3 mph3.7 kmh 31.77 in1075.9 mb - 0.00 in0.0 mm 0.00 in0.0 mm
11:25 AM 81.1°F27.3°C 72.0°F22.2°C 74% 2.3 mph E3.7 kmh E 2.3 mph3.7 kmh 31.77 in1075.9 mb - 0.00 in0.0 mm 0.00 in0.0 mm
11:30 AM 81.3°F27.4°C 72.6°F22.6°C 75% 1.2 mph SE1.9 kmh SE 2.3 mph3.7 kmh 31.77 in1075.9 mb - 0.00 in0.0 mm 0.00 in0.0 mm
11:35 AM 82.5°F28.1°C 72.9°F22.7°C 73% 2.3 mph SE3.7 kmh SE 3.5 mph5.6 kmh 31.77 in1075.9 mb - 0.00 in0.0 mm 0.00 in0.0 mm
11:40 AM 81.2°F27.3°C 72.1°F22.3°C 74% 2.3 mph SE3.7 kmh SE 2.3 mph3.7 kmh 31.77 in1075.9 mb - 0.00 in0.0 mm 0.00 in0.0 mm
11:45 AM 80.9°F27.2°C 71.8°F22.1°C 74% 2.3 mph SSE3.7 kmh SSE 3.5 mph5.6 kmh 31.77 in1075.9 mb - 0.00 in0.0 mm 0.00 in0.0 mm
11:50 AM 80.2°F26.8°C 72.3°F22.4°C 77% 2.3 mph S3.7 kmh S 3.5 mph5.6 kmh 31.77 in1075.9 mb - 0.00 in0.0 mm 0.00 in0.0 mm
11:55 AM 80.2°F26.8°C 72.3°F22.4°C 77% 2.3 mph SSE3.7 kmh SSE 2.3 mph3.7 kmh 31.77 in1075.9 mb - 0.00 in0.0 mm 0.00 in0.0 mm
12:00 PM 79.5°F26.4°C 72.1°F22.3°C 78% 3.5 mph SE5.6 kmh SE 3.5 mph5.6 kmh 31.77 in1075.9 mb - 0.00 in0.0 mm 0.00 in0.0 mm
12:10 PM 79.9°F26.6°C 70.9°F21.6°C 74% 3.5 mph SE5.6 kmh SE 4.6 mph7.4 kmh 31.77 in1075.9 mb - 0.00 in0.0 mm 0.00 in0.0 mm
12:15 PM 79.3°F26.3°C 70.6°F21.4°C 75% 3.5 mph S5.6 kmh S 4.6 mph7.4 kmh 31.77 in1075.9 mb - 0.00 in0.0 mm 0.00 in0.0 mm
12:20 PM 79.5°F26.4°C 70.9°F21.6°C 75% 3.5 mph SSW5.6 kmh SSW 4.6 mph7.4 kmh 31.77 in1075.9 mb - 0.00 in0.0 mm 0.00 in0.0 mm
12:25 PM 80.5°F26.9°C 71.0°F21.7°C 73% 2.3 mph SSE3.7 kmh SSE 4.6 mph7.4 kmh 31.77 in1075.9 mb - 0.00 in0.0 mm 0.00 in0.0 mm
12:30 PM 81.2°F27.3°C 70.9°F21.6°C 71% 2.3 mph S3.7 kmh S 3.5 mph5.6 kmh 31.77 in1075.9 mb - 0.00 in0.0 mm 0.00 in0.0 mm
12:35 PM 81.2°F27.3°C 71.3°F21.8°C 72% 2.3 mph SSE3.7 kmh SSE 2.3 mph3.7 kmh 31.77 in1075.9 mb - 0.00 in0.0 mm 0.00 in0.0 mm
12:40 PM 82.2°F27.9°C 71.9°F22.2°C 71% 2.3 mph SE3.7 kmh SE 2.3 mph3.7 kmh 31.77 in1075.9 mb - 0.00 in0.0 mm 0.00 in0.0 mm
12:45 PM 80.9°F27.2°C 71.0°F21.7°C 72% 3.5 mph S5.6 kmh S 3.5 mph5.6 kmh 31.77 in1075.9 mb - 0.00 in0.0 mm 0.00 in0.0 mm
12:50 PM 81.4°F27.4°C 71.0°F21.7°C 71% 2.3 mph SW3.7 kmh SW 3.5 mph5.6 kmh 31.77 in1075.9 mb - 0.00 in0.0 mm 0.00 in0.0 mm
12:55 PM 82.4°F28.0°C 71.7°F22.1°C 70% 2.3 mph SSW3.7 kmh SSW 4.6 mph7.4 kmh 31.77 in1075.9 mb - 0.00 in0.0 mm 0.00 in0.0 mm
01:00 PM 82.2°F27.9°C 71.9°F22.2°C 71% 3.5 mph SSW5.6 kmh SSW 4.6 mph7.4 kmh 31.77 in1075.9 mb - 0.00 in0.0 mm 0.00 in0.0 mm
01:10 PM 82.1°F27.8°C 72.2°F22.3°C 72% 3.5 mph S5.6 kmh S 3.5 mph5.6 kmh 31.77 in1075.9 mb - 0.00 in0.0 mm 0.00 in0.0 mm
01:15 PM 80.2°F26.8°C 70.8°F21.6°C 73% 4.6 mph SSE7.4 kmh SSE 5.8 mph9.3 kmh 31.77 in1075.9 mb - 0.00 in0.0 mm 0.00 in0.0 mm
01:20 PM 81.5°F27.5°C 72.0°F22.2°C 73% 3.5 mph S5.6 kmh S 4.6 mph7.4 kmh 31.77 in1075.9 mb - 0.00 in0.0 mm 0.00 in0.0 mm
01:25 PM 81.3°F27.4°C 71.8°F22.1°C 73% 3.5 mph ESE5.6 kmh ESE 3.5 mph5.6 kmh 31.77 in1075.9 mb - 0.00 in0.0 mm 0.00 in0.0 mm
01:30 PM 81.3°F27.4°C 72.6°F22.6°C 75% 3.5 mph SE5.6 kmh SE 3.5 mph5.6 kmh 31.77 in1075.9 mb - 0.00 in0.0 mm 0.00 in0.0 mm
01:35 PM 79.8°F26.6°C 70.8°F21.6°C 74% 3.5 mph SSE5.6 kmh SSE 4.6 mph7.4 kmh 31.77 in1075.9 mb - 0.00 in0.0 mm 0.00 in0.0 mm
01:40 PM 80.4°F26.9°C 71.7°F22.1°C 75% 3.5 mph SSW5.6 kmh SSW 5.8 mph9.3 kmh 31.77 in1075.9 mb - 0.00 in0.0 mm 0.00 in0.0 mm
01:45 PM 79.9°F26.6°C 70.8°F21.6°C 74% 4.6 mph S7.4 kmh S 5.8 mph9.3 kmh 31.77 in1075.9 mb - 0.00 in0.0 mm 0.00 in0.0 mm
01:50 PM 80.3°F26.8°C 71.7°F22.1°C 75% 3.5 mph SSE5.6 kmh SSE 4.6 mph7.4 kmh 31.77 in1075.9 mb - 0.00 in0.0 mm 0.00 in0.0 mm
01:55 PM 79.4°F26.3°C 71.2°F21.8°C 76% 4.6 mph S7.4 kmh S 5.8 mph9.3 kmh 31.77 in1075.9 mb - 0.00 in0.0 mm 0.00 in0.0 mm
02:00 PM 79.5°F26.4°C 70.9°F21.6°C 75% 2.3 mph SE3.7 kmh SE 4.6 mph7.4 kmh 31.77 in1075.9 mb - 0.00 in0.0 mm 0.00 in0.0 mm
02:10 PM 80.9°F27.2°C 71.4°F21.9°C 73% 3.5 mph S5.6 kmh S 4.6 mph7.4 kmh 31.77 in1075.9 mb - 0.00 in0.0 mm 0.00 in0.0 mm
02:15 PM 80.4°F26.9°C 71.3°F21.8°C 74% 4.6 mph S7.4 kmh S 4.6 mph7.4 kmh 31.77 in1075.9 mb - 0.00 in0.0 mm 0.00 in0.0 mm
02:20 PM 79.1°F26.2°C 70.9°F21.6°C 76% 4.6 mph S7.4 kmh S 5.8 mph9.3 kmh 31.77 in1075.9 mb - 0.00 in0.0 mm 0.00 in0.0 mm
02:25 PM 78.3°F25.7°C 70.1°F21.2°C 76% 3.5 mph S5.6 kmh S 4.6 mph7.4 kmh 31.77 in1075.9 mb - 0.00 in0.0 mm 0.00 in0.0 mm
02:30 PM 78.9°F26.1°C 70.7°F21.5°C 76% 4.6 mph SE7.4 kmh SE 4.6 mph7.4 kmh 31.77 in1075.9 mb - 0.00 in0.0 mm 0.00 in0.0 mm
02:35 PM 78.8°F26.0°C 71.0°F21.7°C 77% 3.5 mph SSE5.6 kmh SSE 4.6 mph7.4 kmh 31.77 in1075.9 mb - 0.00 in0.0 mm 0.00 in0.0 mm
02:40 PM 78.4°F25.8°C 70.6°F21.4°C 77% 3.5 mph SSE5.6 kmh SSE 4.6 mph7.4 kmh 31.77 in1075.9 mb - 0.00 in0.0 mm 0.00 in0.0 mm
02:45 PM 80.0°F26.7°C 70.9°F21.6°C 74% 3.5 mph SSE5.6 kmh SSE 5.8 mph9.3 kmh 31.77 in1075.9 mb - 0.00 in0.0 mm 0.00 in0.0 mm
02:50 PM 80.4°F26.9°C 71.7°F22.1°C 75% 4.6 mph S7.4 kmh S 4.6 mph7.4 kmh 31.77 in1075.9 mb - 0.00 in0.0 mm 0.00 in0.0 mm
02:55 PM 79.3°F26.3°C 71.1°F21.7°C 76% 4.6 mph S7.4 kmh S 4.6 mph7.4 kmh 31.77 in1075.9 mb - 0.00 in0.0 mm 0.00 in0.0 mm
03:00 PM 79.6°F26.4°C 71.7°F22.1°C 77% 3.5 mph S5.6 kmh S 3.5 mph5.6 kmh 31.77 in1075.9 mb - 0.00 in0.0 mm 0.00 in0.0 mm
03:10 PM 78.1°F25.6°C 70.3°F21.3°C 77% 2.3 mph S3.7 kmh S 2.3 mph3.7 kmh 31.77 in1075.9 mb - 0.00 in0.0 mm 0.00 in0.0 mm
03:15 PM 78.8°F26.0°C 71.0°F21.7°C 77% 3.5 mph S5.6 kmh S 3.5 mph5.6 kmh 31.77 in1075.9 mb - 0.00 in0.0 mm 0.00 in0.0 mm
03:20 PM 79.2°F26.2°C 71.0°F21.7°C 76% 3.5 mph S5.6 kmh S 3.5 mph5.6 kmh 31.77 in1075.9 mb - 0.00 in0.0 mm 0.00 in0.0 mm
03:25 PM 79.4°F26.3°C 70.8°F21.6°C 75% 3.5 mph SE5.6 kmh SE 3.5 mph5.6 kmh 31.77 in1075.9 mb - 0.00 in0.0 mm 0.00 in0.0 mm
03:30 PM 79.8°F26.6°C 71.6°F22.0°C 76% 3.5 mph S5.6 kmh S 3.5 mph5.6 kmh 31.77 in1075.9 mb - 0.00 in0.0 mm 0.00 in0.0 mm
03:35 PM 80.1°F26.7°C 71.5°F21.9°C 75% 2.3 mph SSE3.7 kmh SSE 4.6 mph7.4 kmh 31.77 in1075.9 mb - 0.00 in0.0 mm 0.00 in0.0 mm
03:40 PM 79.6°F26.4°C 72.1°F22.3°C 78% 4.6 mph SE7.4 kmh SE 4.6 mph7.4 kmh 31.77 in1075.9 mb - 0.00 in0.0 mm 0.00 in0.0 mm
03:45 PM 79.7°F26.5°C 71.5°F21.9°C 76% 3.5 mph S5.6 kmh S 4.6 mph7.4 kmh 31.77 in1075.9 mb - 0.00 in0.0 mm 0.00 in0.0 mm
03:50 PM 79.9°F26.6°C 71.6°F22.0°C 76% 2.3 mph S3.7 kmh S 2.3 mph3.7 kmh 31.77 in1075.9 mb - 0.00 in0.0 mm 0.00 in0.0 mm
03:55 PM 79.2°F26.2°C 71.3°F21.8°C 77% 3.5 mph S5.6 kmh S 3.5 mph5.6 kmh 31.77 in1075.9 mb - 0.00 in0.0 mm 0.00 in0.0 mm
04:00 PM 79.8°F26.6°C 71.2°F21.8°C 75% 2.3 mph SSW3.7 kmh SSW 2.3 mph3.7 kmh 31.77 in1075.9 mb - 0.00 in0.0 mm 0.00 in0.0 mm
04:10 PM 78.0°F25.6°C 71.0°F21.7°C 79% 2.3 mph SSW3.7 kmh SSW 3.5 mph5.6 kmh 31.77 in1075.9 mb - 0.00 in0.0 mm 0.00 in0.0 mm
04:15 PM 77.2°F25.1°C 70.9°F21.6°C 81% 3.5 mph SW5.6 kmh SW 3.5 mph5.6 kmh 31.77 in1075.9 mb - 0.00 in0.0 mm 0.00 in0.0 mm
04:20 PM 76.8°F24.9°C 70.5°F21.4°C 81% 3.5 mph S5.6 kmh S 3.5 mph5.6 kmh 31.77 in1075.9 mb - 0.00 in0.0 mm 0.00 in0.0 mm
04:25 PM 77.2°F25.1°C 70.9°F21.6°C 81% 1.2 mph SE1.9 kmh SE 2.3 mph3.7 kmh 31.77 in1075.9 mb - 0.00 in0.0 mm 0.00 in0.0 mm
04:30 PM 77.3°F25.2°C 71.0°F21.7°C 81% 2.3 mph S3.7 kmh S 2.3 mph3.7 kmh 31.77 in1075.9 mb - 0.00 in0.0 mm 0.00 in0.0 mm
04:35 PM 78.6°F25.9°C 71.5°F21.9°C 79% 2.3 mph SSW3.7 kmh SSW 3.5 mph5.6 kmh 31.77 in1075.9 mb - 0.00 in0.0 mm 0.00 in0.0 mm
04:40 PM 77.6°F25.3°C 70.6°F21.4°C 79% 2.3 mph S3.7 kmh S 3.5 mph5.6 kmh 31.77 in1075.9 mb - 0.00 in0.0 mm 0.00 in0.0 mm
04:45 PM 77.6°F25.3°C 70.9°F21.6°C 80% 2.3 mph SSW3.7 kmh SSW 2.3 mph3.7 kmh 31.77 in1075.9 mb - 0.00 in0.0 mm 0.00 in0.0 mm
04:50 PM 77.4°F25.2°C 70.7°F21.5°C 80% 1.2 mph SE1.9 kmh SE 1.2 mph1.9 kmh 31.77 in1075.9 mb - 0.00 in0.0 mm 0.00 in0.0 mm
04:55 PM 78.1°F25.6°C 71.0°F21.7°C 79% 2.3 mph SSW3.7 kmh SSW 2.3 mph3.7 kmh 31.77 in1075.9 mb - 0.00 in0.0 mm 0.00 in0.0 mm
05:00 PM 78.3°F25.7°C 71.2°F21.8°C 79% 3.5 mph SSW5.6 kmh SSW 4.6 mph7.4 kmh 31.77 in1075.9 mb - 0.00 in0.0 mm 0.00 in0.0 mm
05:10 PM 77.5°F25.3°C 71.2°F21.8°C 81% 2.3 mph S3.7 kmh S 2.3 mph3.7 kmh 31.77 in1075.9 mb - 0.00 in0.0 mm 0.00 in0.0 mm
05:15 PM 78.1°F25.6°C 71.4°F21.9°C 80% 1.2 mph S1.9 kmh S 1.2 mph1.9 kmh 31.77 in1075.9 mb - 0.00 in0.0 mm 0.00 in0.0 mm
05:20 PM 77.9°F25.5°C 71.2°F21.8°C 80% 3.5 mph S5.6 kmh S 3.5 mph5.6 kmh 31.77 in1075.9 mb - 0.00 in0.0 mm 0.00 in0.0 mm
05:25 PM 78.1°F25.6°C 71.4°F21.9°C 80% 2.3 mph S3.7 kmh S 2.3 mph3.7 kmh 31.77 in1075.9 mb - 0.00 in0.0 mm 0.00 in0.0 mm
05:30 PM 79.1°F26.2°C 71.7°F22.1°C 78% 2.3 mph SSW3.7 kmh SSW 2.3 mph3.7 kmh 31.77 in1075.9 mb - 0.00 in0.0 mm 0.00 in0.0 mm
05:35 PM 78.3°F25.7°C 71.2°F21.8°C 79% 2.3 mph SSW3.7 kmh SSW 2.3 mph3.7 kmh 31.77 in1075.9 mb - 0.00 in0.0 mm 0.00 in0.0 mm
05:40 PM 78.3°F25.7°C 71.6°F22.0°C 80% 1.2 mph S1.9 kmh S 2.3 mph3.7 kmh 31.77 in1075.9 mb - 0.00 in0.0 mm 0.00 in0.0 mm
05:45 PM 79.0°F26.1°C 71.5°F21.9°C 78% Calm Calm -- 31.77 in1075.9 mb - 0.00 in0.0 mm 0.00 in0.0 mm
05:50 PM 78.5°F25.8°C 71.4°F21.9°C 79% Calm Calm -- 31.77 in1075.9 mb - 0.00 in0.0 mm 0.00 in0.0 mm
05:55 PM 79.4°F26.3°C 71.2°F21.8°C 76% Calm Calm -- 31.77 in1075.9 mb - 0.00 in0.0 mm 0.00 in0.0 mm
06:00 PM 78.6°F25.9°C 71.1°F21.7°C 78% Calm Calm -- 31.77 in1075.9 mb - 0.00 in0.0 mm 0.00 in0.0 mm
06:10 PM 78.6°F25.9°C 71.1°F21.7°C 78% Calm Calm -- 31.77 in1075.9 mb - 0.00 in0.0 mm 0.00 in0.0 mm
06:15 PM 78.1°F25.6°C 71.4°F21.9°C 80% Calm Calm -- 31.77 in1075.9 mb - 0.00 in0.0 mm 0.00 in0.0 mm
06:20 PM 78.6°F25.9°C 71.5°F21.9°C 79% Calm Calm -- 31.77 in1075.9 mb - 0.00 in0.0 mm 0.00 in0.0 mm
06:25 PM 78.6°F25.9°C 70.8°F21.6°C 77% Calm Calm -- 31.77 in1075.9 mb - 0.00 in0.0 mm 0.00 in0.0 mm
06:30 PM 78.6°F25.9°C 70.8°F21.6°C 77% Calm Calm -- 31.77 in1075.9 mb - 0.00 in0.0 mm 0.00 in0.0 mm
06:35 PM 78.4°F25.8°C 71.7°F22.1°C 80% Calm Calm -- 31.77 in1075.9 mb - 0.00 in0.0 mm 0.00 in0.0 mm
06:40 PM 77.8°F25.4°C 71.1°F21.7°C 80% 1.2 mph WNW1.9 kmh WNW 1.2 mph1.9 kmh 31.77 in1075.9 mb - 0.00 in0.0 mm 0.00 in0.0 mm
06:45 PM 77.4°F25.2°C 72.2°F22.3°C 84% 1.2 mph N1.9 kmh N 1.2 mph1.9 kmh 31.77 in1075.9 mb - 0.00 in0.0 mm 0.00 in0.0 mm
06:50 PM 77.0°F25.0°C 72.9°F22.7°C 87% 1.2 mph NNE1.9 kmh NNE 1.2 mph1.9 kmh 31.77 in1075.9 mb - 0.00 in0.0 mm 0.00 in0.0 mm
06:55 PM 76.5°F24.7°C 72.4°F22.4°C 87% 2.3 mph N3.7 kmh N 2.3 mph3.7 kmh 31.77 in1075.9 mb - 0.00 in0.0 mm 0.00 in0.0 mm
07:00 PM 75.8°F24.3°C 71.3°F21.8°C 86% 2.3 mph NE3.7 kmh NE 2.3 mph3.7 kmh 31.77 in1075.9 mb - 0.00 in0.0 mm 0.00 in0.0 mm
07:10 PM 75.8°F24.3°C 72.0°F22.2°C 88% Calm Calm -- 31.77 in1075.9 mb - 0.00 in0.0 mm 0.00 in0.0 mm
07:15 PM 75.5°F24.2°C 71.7°F22.1°C 88% Calm Calm 1.2 mph1.9 kmh 31.77 in1075.9 mb - 0.00 in0.0 mm 0.00 in0.0 mm
07:20 PM 75.1°F23.9°C 71.3°F21.8°C 88% 1.2 mph NE1.9 kmh NE 1.2 mph1.9 kmh 31.77 in1075.9 mb - 0.00 in0.0 mm 0.00 in0.0 mm
07:25 PM 74.9°F23.8°C 70.4°F21.3°C 86% Calm Calm -- 31.77 in1075.9 mb - 0.00 in0.0 mm 0.00 in0.0 mm
07:30 PM 74.7°F23.7°C 70.2°F21.2°C 86% Calm Calm -- 31.77 in1075.9 mb - 0.00 in0.0 mm 0.00 in0.0 mm
07:35 PM 74.3°F23.5°C 69.8°F21.0°C 86% Calm Calm 1.2 mph1.9 kmh 31.77 in1075.9 mb - 0.00 in0.0 mm 0.00 in0.0 mm
07:40 PM 74.0°F23.3°C 69.9°F21.1°C 87% Calm Calm -- 31.77 in1075.9 mb - 0.00 in0.0 mm 0.00 in0.0 mm
07:45 PM 73.8°F23.2°C 70.0°F21.1°C 88% 1.2 mph NE1.9 kmh NE 1.2 mph1.9 kmh 31.77 in1075.9 mb - 0.00 in0.0 mm 0.00 in0.0 mm
07:50 PM 73.4°F23.0°C 70.0°F21.1°C 89% Calm Calm -- 31.77 in1075.9 mb - 0.00 in0.0 mm 0.00 in0.0 mm
07:55 PM 73.1°F22.8°C 69.7°F20.9°C 89% Calm Calm -- 31.77 in1075.9 mb - 0.00 in0.0 mm 0.00 in0.0 mm
08:00 PM 72.7°F22.6°C 69.2°F20.7°C 89% Calm Calm -- 31.77 in1075.9 mb - 0.00 in0.0 mm 0.00 in0.0 mm
08:10 PM 71.8°F22.1°C 69.3°F20.7°C 92% Calm Calm -- 31.77 in1075.9 mb - 0.00 in0.0 mm 0.00 in0.0 mm
08:15 PM 71.3°F21.8°C 69.2°F20.7°C 93% Calm Calm -- 31.77 in1075.9 mb - 0.00 in0.0 mm 0.00 in0.0 mm
08:20 PM 70.8°F21.6°C 68.9°F20.5°C 94% 2.3 mph N3.7 kmh N 1.2 mph1.9 kmh 31.77 in1075.9 mb - 0.00 in0.0 mm 0.00 in0.0 mm
08:25 PM 70.2°F21.2°C 68.4°F20.2°C 94% Calm Calm -- 31.77 in1075.9 mb - 0.00 in0.0 mm 0.00 in0.0 mm
08:30 PM 69.8°F21.0°C 68.0°F20.0°C 94% Calm Calm -- 31.77 in1075.9 mb - 0.00 in0.0 mm 0.00 in0.0 mm
08:35 PM 69.3°F20.7°C 68.1°F20.1°C 96% 2.3 mph NE3.7 kmh NE 2.3 mph3.7 kmh 31.77 in1075.9 mb - 0.00 in0.0 mm 0.00 in0.0 mm
08:40 PM 68.7°F20.4°C 67.8°F19.9°C 97% 1.2 mph NE1.9 kmh NE 1.2 mph1.9 kmh 31.77 in1075.9 mb - 0.00 in0.0 mm 0.00 in0.0 mm
08:45 PM 68.2°F20.1°C 67.6°F19.8°C 98% 1.2 mph NNE1.9 kmh NNE 2.3 mph3.7 kmh 31.77 in1075.9 mb - 0.00 in0.0 mm 0.00 in0.0 mm
08:50 PM 67.8°F19.9°C 67.2°F19.6°C 98% 3.5 mph NNE5.6 kmh NNE 3.5 mph5.6 kmh 31.77 in1075.9 mb - 0.00 in0.0 mm 0.00 in0.0 mm
08:55 PM 67.7°F19.8°C 67.4°F19.7°C 99% 3.5 mph N5.6 kmh N 3.5 mph5.6 kmh 31.77 in1075.9 mb - 0.00 in0.0 mm 0.00 in0.0 mm
09:00 PM 67.5°F19.7°C 67.2°F19.6°C 99% 1.2 mph NNE1.9 kmh NNE 1.2 mph1.9 kmh 31.77 in1075.9 mb - 0.00 in0.0 mm 0.00 in0.0 mm
09:10 PM 66.9°F19.4°C 66.6°F19.2°C 99% Calm Calm 1.2 mph1.9 kmh 31.77 in1075.9 mb - 0.00 in0.0 mm 0.00 in0.0 mm
09:15 PM 66.8°F19.3°C 66.5°F19.2°C 99% 2.3 mph NNE3.7 kmh NNE 2.3 mph3.7 kmh 31.77 in1075.9 mb - 0.00 in0.0 mm 0.00 in0.0 mm
09:20 PM 66.6°F19.2°C 66.3°F19.1°C 99% 3.5 mph N5.6 kmh N 3.5 mph5.6 kmh 31.77 in1075.9 mb - 0.00 in0.0 mm 0.00 in0.0 mm
09:25 PM 66.6°F19.2°C 66.3°F19.1°C 99% 4.6 mph N7.4 kmh N 4.6 mph7.4 kmh 31.77 in1075.9 mb - 0.00 in0.0 mm 0.00 in0.0 mm
09:30 PM 66.2°F19.0°C 65.9°F18.8°C 99% 3.5 mph N5.6 kmh N 4.6 mph7.4 kmh 31.77 in1075.9 mb - 0.00 in0.0 mm 0.00 in0.0 mm
09:35 PM 66.2°F19.0°C 65.9°F18.8°C 99% 3.5 mph N5.6 kmh N 3.5 mph5.6 kmh 31.77 in1075.9 mb - 0.00 in0.0 mm 0.00 in0.0 mm
09:40 PM 66.2°F19.0°C 65.9°F18.8°C 99% 3.5 mph NNE5.6 kmh NNE 4.6 mph7.4 kmh 31.77 in1075.9 mb - 0.00 in0.0 mm 0.00 in0.0 mm
09:45 PM 66.2°F19.0°C 65.9°F18.8°C 99% 3.5 mph NNE5.6 kmh NNE 3.5 mph5.6 kmh 31.77 in1075.9 mb - 0.00 in0.0 mm 0.00 in0.0 mm
09:50 PM 66.2°F19.0°C 65.9°F18.8°C 99% 3.5 mph NNE5.6 kmh NNE 3.5 mph5.6 kmh 31.77 in1075.9 mb - 0.00 in0.0 mm 0.00 in0.0 mm
09:55 PM 66.2°F19.0°C 65.9°F18.8°C 99% 4.6 mph N7.4 kmh N 4.6 mph7.4 kmh 31.77 in1075.9 mb - 0.00 in0.0 mm 0.00 in0.0 mm
10:00 PM 66.2°F19.0°C 65.9°F18.8°C 99% 4.6 mph NNE7.4 kmh NNE 4.6 mph7.4 kmh 31.77 in1075.9 mb - 0.00 in0.0 mm 0.00 in0.0 mm
10:10 PM 66.4°F19.1°C 66.1°F18.9°C 99% 5.8 mph NNE9.3 kmh NNE 5.8 mph9.3 kmh 31.77 in1075.9 mb - 0.00 in0.0 mm 0.00 in0.0 mm
10:15 PM 66.6°F19.2°C 66.3°F19.1°C 99% 5.8 mph N9.3 kmh N 5.8 mph9.3 kmh 31.77 in1075.9 mb - 0.00 in0.0 mm 0.00 in0.0 mm
10:20 PM 66.8°F19.3°C 66.5°F19.2°C 99% 5.8 mph NNE9.3 kmh NNE 5.8 mph9.3 kmh 31.77 in1075.9 mb - 0.00 in0.0 mm 0.00 in0.0 mm
10:25 PM 66.9°F19.4°C 66.6°F19.2°C 99% 5.8 mph N9.3 kmh N 5.8 mph9.3 kmh 31.77 in1075.9 mb - 0.00 in0.0 mm 0.00 in0.0 mm
10:30 PM 66.9°F19.4°C 66.6°F19.2°C 99% 3.5 mph N5.6 kmh N 4.6 mph7.4 kmh 31.77 in1075.9 mb - 0.00 in0.0 mm 0.00 in0.0 mm
10:35 PM 66.9°F19.4°C 66.6°F19.2°C 99% 3.5 mph NNE5.6 kmh NNE 4.6 mph7.4 kmh 31.77 in1075.9 mb - 0.00 in0.0 mm 0.00 in0.0 mm
10:40 PM 66.9°F19.4°C 66.6°F19.2°C 99% 3.5 mph N5.6 kmh N 4.6 mph7.4 kmh 31.77 in1075.9 mb - 0.00 in0.0 mm 0.00 in0.0 mm
10:45 PM 67.1°F19.5°C 66.8°F19.3°C 99% 3.5 mph NNE5.6 kmh NNE 4.6 mph7.4 kmh 31.77 in1075.9 mb - 0.00 in0.0 mm 0.00 in0.0 mm
10:50 PM 67.1°F19.5°C 66.8°F19.3°C 99% 4.6 mph NNE7.4 kmh NNE 4.6 mph7.4 kmh 31.77 in1075.9 mb - 0.00 in0.0 mm 0.00 in0.0 mm
10:55 PM 67.3°F19.6°C 67.0°F19.4°C 99% 3.5 mph NNE5.6 kmh NNE 4.6 mph7.4 kmh 31.77 in1075.9 mb - 0.00 in0.0 mm 0.00 in0.0 mm
11:00 PM 67.3°F19.6°C 67.0°F19.4°C 99% 2.3 mph NE3.7 kmh NE 2.3 mph3.7 kmh 31.77 in1075.9 mb - 0.00 in0.0 mm 0.00 in0.0 mm
11:10 PM 67.3°F19.6°C 67.0°F19.4°C 99% 2.3 mph W3.7 kmh W 2.3 mph3.7 kmh 31.77 in1075.9 mb - 0.00 in0.0 mm 0.00 in0.0 mm
11:15 PM 67.3°F19.6°C 67.0°F19.4°C 99% 2.3 mph NE3.7 kmh NE 2.3 mph3.7 kmh 31.77 in1075.9 mb - 0.00 in0.0 mm 0.00 in0.0 mm
11:20 PM 67.3°F19.6°C 67.0°F19.4°C 99% 2.3 mph NE3.7 kmh NE 2.3 mph3.7 kmh 31.77 in1075.9 mb - 0.00 in0.0 mm 0.00 in0.0 mm
11:25 PM 67.3°F19.6°C 67.0°F19.4°C 99% 2.3 mph NNE3.7 kmh NNE 3.5 mph5.6 kmh 31.77 in1075.9 mb - 0.00 in0.0 mm 0.00 in0.0 mm
11:30 PM 67.3°F19.6°C 67.0°F19.4°C 99% 2.3 mph NNE3.7 kmh NNE 2.3 mph3.7 kmh 31.77 in1075.9 mb - 0.00 in0.0 mm 0.00 in0.0 mm
11:35 PM 67.3°F19.6°C 67.0°F19.4°C 99% 2.3 mph NNE3.7 kmh NNE 2.3 mph3.7 kmh 31.77 in1075.9 mb - 0.00 in0.0 mm 0.00 in0.0 mm
11:40 PM 67.3°F19.6°C 67.0°F19.4°C 99% 2.3 mph NE3.7 kmh NE 2.3 mph3.7 kmh 31.77 in1075.9 mb - 0.00 in0.0 mm 0.00 in0.0 mm
11:45 PM 67.1°F19.5°C 66.8°F19.3°C 99% 2.3 mph NE3.7 kmh NE 2.3 mph3.7 kmh 31.77 in1075.9 mb - 0.00 in0.0 mm 0.00 in0.0 mm
11:50 PM 66.9°F19.4°C 66.6°F19.2°C 99% 2.3 mph NNE3.7 kmh NNE 2.3 mph3.7 kmh 31.77 in1075.9 mb - 0.00 in0.0 mm 0.00 in0.0 mm
11:55 PM 66.8°F19.3°C 66.5°F19.2°C 99% 2.3 mph ENE3.7 kmh ENE 2.3 mph3.7 kmh 31.77 in1075.9 mb - 0.00 in0.0 mm 0.00 in0.0 mm